sensor_id;sensor_type;location;lat;lon;timestamp;pressure;altitude;pressure_sealevel;temperature;humidity
43217;BME280;60511;42.686;23.300;2023-04-30T00:01:20;94385.22;;;22.96;27.84
43217;BME280;60511;42.686;23.300;2023-04-30T00:03:21;94414.19;;;23.15;28.15
43217;BME280;60511;42.686;23.300;2023-04-30T00:05:23;94414.91;;;23.12;28.23
43217;BME280;60511;42.686;23.300;2023-04-30T00:07:23;94391.06;;;22.98;27.85
43217;BME280;60511;42.686;23.300;2023-04-30T00:09:24;94416.47;;;23.13;27.95
43217;BME280;60511;42.686;23.300;2023-04-30T00:11:25;94407.22;;;23.14;28.19
43217;BME280;60511;42.686;23.300;2023-04-30T00:13:25;94414.53;;;23.14;28.25
43217;BME280;60511;42.686;23.300;2023-04-30T00:15:26;94416.09;;;23.15;27.87
43217;BME280;60511;42.686;23.300;2023-04-30T00:17:26;94412.97;;;23.13;28.16
43217;BME280;60511;42.686;23.300;2023-04-30T00:19:26;94415.31;;;23.14;27.87
43217;BME280;60511;42.686;23.300;2023-04-30T00:21:27;94397.41;;;23.06;28.03
43217;BME280;60511;42.686;23.300;2023-04-30T00:23:27;94391.66;;;23.08;28.29
43217;BME280;60511;42.686;23.300;2023-04-30T00:25:28;94362.66;;;22.85;28.02
43217;BME280;60511;42.686;23.300;2023-04-30T00:27:29;94401.75;;;23.11;28.21
43217;BME280;60511;42.686;23.300;2023-04-30T00:29:31;94379.50;;;22.98;28.03
43217;BME280;60511;42.686;23.300;2023-04-30T00:31:31;94404.88;;;23.13;27.92
43217;BME280;60511;42.686;23.300;2023-04-30T00:33:34;94368.50;;;22.87;28.23
43217;BME280;60511;42.686;23.300;2023-04-30T00:35:34;94398.13;;;23.03;28.21
43217;BME280;60511;42.686;23.300;2023-04-30T00:37:35;94376.28;;;22.92;27.99
43217;BME280;60511;42.686;23.300;2023-04-30T00:39:35;94402.81;;;23.06;27.89
43217;BME280;60511;42.686;23.300;2023-04-30T00:41:36;94328.13;;;22.55;28.07
43217;BME280;60511;42.686;23.300;2023-04-30T00:43:36;94380.22;;;22.95;28.18
43217;BME280;60511;42.686;23.300;2023-04-30T00:45:36;94383.75;;;22.99;28.08
43217;BME280;60511;42.686;23.300;2023-04-30T00:47:37;94412.97;;;23.13;27.88
43217;BME280;60511;42.686;23.300;2023-04-30T00:49:37;94390.03;;;23.03;28.19
43217;BME280;60511;42.686;23.300;2023-04-30T00:51:39;94401.75;;;23.11;28.29
43217;BME280;60511;42.686;23.300;2023-04-30T00:53:42;94292.78;;;22.41;28.27
43217;BME280;60511;42.686;23.300;2023-04-30T00:55:43;94402.53;;;23.11;27.98
43217;BME280;60511;42.686;23.300;2023-04-30T00:57:44;94306.34;;;22.44;28.20
43217;BME280;60511;42.686;23.300;2023-04-30T00:59:44;94407.94;;;23.11;28.27
43217;BME280;60511;42.686;23.300;2023-04-30T01:01:45;94399.03;;;23.11;28.19
43217;BME280;60511;42.686;23.300;2023-04-30T01:03:46;94372.88;;;22.95;28.20
43217;BME280;60511;42.686;23.300;2023-04-30T01:05:46;94401.75;;;23.11;27.93
43217;BME280;60511;42.686;23.300;2023-04-30T01:07:47;94401.75;;;23.11;28.01
43217;BME280;60511;42.686;23.300;2023-04-30T01:09:48;94392.09;;;23.10;28.27
43217;BME280;60511;42.686;23.300;2023-04-30T01:19:08;94389.25;;;23.02;28.15
43217;BME280;60511;42.686;23.300;2023-04-30T01:21:11;94377.13;;;22.96;28.14
43217;BME280;60511;42.686;23.300;2023-04-30T01:26:06;94397.16;;;23.11;28.06
43217;BME280;60511;42.686;23.300;2023-04-30T01:28:14;94342.00;;;22.73;28.02
43217;BME280;60511;42.686;23.300;2023-04-30T01:30:24;94397.50;;;23.10;28.27
43217;BME280;60511;42.686;23.300;2023-04-30T01:32:25;94389.31;;;23.06;27.95
43217;BME280;60511;42.686;23.300;2023-04-30T01:34:25;94403.25;;;23.08;27.94
43217;BME280;60511;42.686;23.300;2023-04-30T01:36:52;94315.88;;;22.58;27.94
43217;BME280;60511;42.686;23.300;2023-04-30T01:39:19;94398.19;;;23.06;28.28
43217;BME280;60511;42.686;23.300;2023-04-30T01:46:04;94336.03;;;22.64;27.95
43217;BME280;60511;42.686;23.300;2023-04-30T01:48:37;94399.00;;;23.07;27.91
43217;BME280;60511;42.686;23.300;2023-04-30T01:50:52;94406.66;;;23.05;28.42
43217;BME280;60511;42.686;23.300;2023-04-30T01:52:58;94402.13;;;23.09;28.02
43217;BME280;60511;42.686;23.300;2023-04-30T01:55:08;94402.47;;;23.08;27.96
43217;BME280;60511;42.686;23.300;2023-04-30T01:57:28;94381.06;;;22.99;27.99
43217;BME280;60511;42.686;23.300;2023-04-30T01:59:33;94377.09;;;22.93;28.29
43217;BME280;60511;42.686;23.300;2023-04-30T02:01:35;94400.53;;;23.08;28.01
43217;BME280;60511;42.686;23.300;2023-04-30T02:03:36;94375.44;;;22.88;28.37
43217;BME280;60511;42.686;23.300;2023-04-30T02:05:36;94401.31;;;23.09;28.14
43217;BME280;60511;42.686;23.300;2023-04-30T02:07:41;94384.81;;;22.94;28.06
43217;BME280;60511;42.686;23.300;2023-04-30T02:09:43;94357.97;;;22.82;28.17
43217;BME280;60511;42.686;23.300;2023-04-30T02:11:43;94379.84;;;22.96;28.15
43217;BME280;60511;42.686;23.300;2023-04-30T02:13:43;94400.97;;;23.10;28.08
43217;BME280;60511;42.686;23.300;2023-04-30T02:15:44;94389.94;;;22.99;27.90
43217;BME280;60511;42.686;23.300;2023-04-30T02:17:44;94396.56;;;23.02;27.96
43217;BME280;60511;42.686;23.300;2023-04-30T02:19:45;94398.19;;;23.06;28.05
43217;BME280;60511;42.686;23.300;2023-04-30T02:21:45;94398.63;;;23.09;27.96
43217;BME280;60511;42.686;23.300;2023-04-30T02:23:46;94359.81;;;22.78;28.15
43217;BME280;60511;42.686;23.300;2023-04-30T02:25:47;94400.53;;;23.08;28.10
43217;BME280;60511;42.686;23.300;2023-04-30T02:27:47;94375.25;;;22.97;27.84
43217;BME280;60511;42.686;23.300;2023-04-30T02:29:49;94325.16;;;22.60;27.91
43217;BME280;60511;42.686;23.300;2023-04-30T02:31:50;94375.94;;;22.94;28.28
43217;BME280;60511;42.686;23.300;2023-04-30T02:33:50;94400.13;;;23.06;28.00
43217;BME280;60511;42.686;23.300;2023-04-30T02:35:51;94396.63;;;23.05;28.02
43217;BME280;60511;42.686;23.300;2023-04-30T02:37:51;94400.53;;;23.08;28.33
43217;BME280;60511;42.686;23.300;2023-04-30T02:39:52;94395.13;;;23.08;28.22
43217;BME280;60511;42.686;23.300;2023-04-30T02:41:52;94367.75;;;22.90;28.15
43217;BME280;60511;42.686;23.300;2023-04-30T02:43:53;94402.47;;;23.08;28.11
43217;BME280;60511;42.686;23.300;2023-04-30T02:45:53;94365.72;;;22.83;28.26
43217;BME280;60511;42.686;23.300;2023-04-30T02:47:54;94316.66;;;22.58;28.22
43217;BME280;60511;42.686;23.300;2023-04-30T02:49:54;94401.31;;;23.09;28.14
43217;BME280;60511;42.686;23.300;2023-04-30T02:51:55;94398.19;;;23.06;28.00
43217;BME280;60511;42.686;23.300;2023-04-30T02:53:55;94400.13;;;23.06;28.08
43217;BME280;60511;42.686;23.300;2023-04-30T02:55:55;94393.41;;;23.00;28.20
43217;BME280;60511;42.686;23.300;2023-04-30T02:57:58;94385.44;;;22.87;28.04
43217;BME280;60511;42.686;23.300;2023-04-30T02:59:58;94375.00;;;22.86;27.87
43217;BME280;60511;42.686;23.300;2023-04-30T03:01:59;94363.72;;;22.80;28.25
43217;BME280;60511;42.686;23.300;2023-04-30T03:04:00;94415.97;;;23.08;28.11
43217;BME280;60511;42.686;23.300;2023-04-30T03:06:02;94379.34;;;22.91;28.10
43217;BME280;60511;42.686;23.300;2023-04-30T03:08:03;94410.91;;;23.06;28.14
43217;BME280;60511;42.686;23.300;2023-04-30T03:10:04;94408.22;;;23.06;28.14
43217;BME280;60511;42.686;23.300;2023-04-30T03:12:05;94394.81;;;22.94;28.26
43217;BME280;60511;42.686;23.300;2023-04-30T03:14:06;94412.75;;;23.02;27.93
43217;BME280;60511;42.686;23.300;2023-04-30T03:16:06;94418.25;;;23.05;28.10
43217;BME280;60511;42.686;23.300;2023-04-30T03:18:06;94404.66;;;23.02;28.06
43217;BME280;60511;42.686;23.300;2023-04-30T03:20:07;94422.56;;;23.10;28.15
43217;BME280;60511;42.686;23.300;2023-04-30T03:22:09;94386.59;;;22.86;28.28
43217;BME280;60511;42.686;23.300;2023-04-30T03:24:10;94397.88;;;22.92;28.09
43217;BME280;60511;42.686;23.300;2023-04-30T03:26:10;94367.00;;;22.70;28.08
43217;BME280;60511;42.686;23.300;2023-04-30T03:28:10;94418.66;;;23.08;28.23
43217;BME280;60511;42.686;23.300;2023-04-30T03:30:11;94385.03;;;22.85;28.29
43217;BME280;60511;42.686;23.300;2023-04-30T03:32:11;94419.78;;;23.06;27.91
43217;BME280;60511;42.686;23.300;2023-04-30T03:34:12;94423.28;;;23.07;28.27
43217;BME280;60511;42.686;23.300;2023-04-30T03:36:12;94421.72;;;23.06;28.05
43217;BME280;60511;42.686;23.300;2023-04-30T03:38:12;94425.56;;;23.05;27.97
43217;BME280;60511;42.686;23.300;2023-04-30T03:40:13;94425.56;;;23.05;28.05
43217;BME280;60511;42.686;23.300;2023-04-30T03:42:13;94423.56;;;23.02;28.19
43217;BME280;60511;42.686;23.300;2023-04-30T03:44:14;94416.50;;;22.97;28.33
43217;BME280;60511;42.686;23.300;2023-04-30T03:46:14;94437.13;;;23.05;28.10
43217;BME280;60511;42.686;23.300;2023-04-30T03:48:15;94442.19;;;23.07;27.91
43217;BME280;60511;42.686;23.300;2023-04-30T03:50:17;94404.56;;;22.79;28.06
43217;BME280;60511;42.686;23.300;2023-04-30T03:52:18;94437.31;;;22.97;28.17
43217;BME280;60511;42.686;23.300;2023-04-30T03:54:19;94448.72;;;23.06;28.04
43217;BME280;60511;42.686;23.300;2023-04-30T03:56:19;94422.47;;;22.87;28.32
43217;BME280;60511;42.686;23.300;2023-04-30T03:58:20;94453.69;;;23.04;28.38
43217;BME280;60511;42.686;23.300;2023-04-30T04:00:21;94454.81;;;23.03;28.11
43217;BME280;60511;42.686;23.300;2023-04-30T04:02:21;94425.50;;;22.85;28.18
43217;BME280;60511;42.686;23.300;2023-04-30T04:04:22;94432.97;;;22.92;27.96
43217;BME280;60511;42.686;23.300;2023-04-30T04:06:22;94357.22;;;22.46;27.98
43217;BME280;60511;42.686;23.300;2023-04-30T04:08:23;94453.34;;;23.05;28.10
43217;BME280;60511;42.686;23.300;2023-04-30T04:10:23;94447.69;;;22.95;28.32
43217;BME280;60511;42.686;23.300;2023-04-30T04:12:24;94452.13;;;23.03;28.04
43217;BME280;60511;42.686;23.300;2023-04-30T04:14:24;94451.75;;;23.04;27.98
43217;BME280;60511;42.686;23.300;2023-04-30T04:16:25;94454.44;;;23.04;28.04
43217;BME280;60511;42.686;23.300;2023-04-30T04:18:26;94454.53;;;23.08;27.99
43217;BME280;60511;42.686;23.300;2023-04-30T04:20:26;94452.78;;;23.00;28.10
43217;BME280;60511;42.686;23.300;2023-04-30T04:22:28;94457.56;;;23.06;28.01
43217;BME280;60511;42.686;23.300;2023-04-30T04:24:29;94446.19;;;22.97;28.25
43217;BME280;60511;42.686;23.300;2023-04-30T04:26:29;94437.16;;;22.90;28.47
43217;BME280;60511;42.686;23.300;2023-04-30T04:28:30;94462.63;;;23.08;28.04
43217;BME280;60511;42.686;23.300;2023-04-30T04:30:31;94454.38;;;23.01;28.06
43217;BME280;60511;42.686;23.300;2023-04-30T04:32:32;94431.66;;;22.86;28.19
43217;BME280;60511;42.686;23.300;2023-04-30T04:34:41;94468.03;;;23.08;27.96
43217;BME280;60511;42.686;23.300;2023-04-30T04:36:42;94419.97;;;22.78;28.00
43217;BME280;60511;42.686;23.300;2023-04-30T04:38:43;94445.75;;;22.95;28.23
43217;BME280;60511;42.686;23.300;2023-04-30T04:40:52;94475.34;;;23.08;28.11
43217;BME280;60511;42.686;23.300;2023-04-30T04:42:53;94451.59;;;22.97;27.85
43217;BME280;60511;42.686;23.300;2023-04-30T04:44:54;94461.34;;;23.02;28.09
43217;BME280;60511;42.686;23.300;2023-04-30T04:46:55;94474.56;;;23.07;28.25
43217;BME280;60511;42.686;23.300;2023-04-30T04:48:59;94471.88;;;23.07;28.01
43217;BME280;60511;42.686;23.300;2023-04-30T04:50:59;94478.06;;;23.08;28.21
43217;BME280;60511;42.686;23.300;2023-04-30T04:52:59;94475.69;;;23.06;28.24
43217;BME280;60511;42.686;23.300;2023-04-30T04:55:00;94476.13;;;23.08;27.97
43217;BME280;60511;42.686;23.300;2023-04-30T04:57:00;94472.47;;;23.00;28.31
43217;BME280;60511;42.686;23.300;2023-04-30T04:59:02;94478.31;;;23.02;28.13
43217;BME280;60511;42.686;23.300;2023-04-30T05:01:02;94491.56;;;23.08;28.11
43217;BME280;60511;42.686;23.300;2023-04-30T05:03:04;94481.00;;;23.02;28.03
43217;BME280;60511;42.686;23.300;2023-04-30T05:05:05;94488.84;;;23.08;27.96
43217;BME280;60511;42.686;23.300;2023-04-30T05:07:06;94460.31;;;22.91;28.24
43217;BME280;60511;42.686;23.300;2023-04-30T05:09:07;94483.09;;;23.09;27.95
43217;BME280;60511;42.686;23.300;2023-04-30T05:11:08;94487.28;;;23.06;28.26
43217;BME280;60511;42.686;23.300;2023-04-30T05:13:09;94479.78;;;23.00;28.03
43217;BME280;60511;42.686;23.300;2023-04-30T05:15:10;94439.28;;;22.80;28.04
43217;BME280;60511;42.686;23.300;2023-04-30T05:17:10;94481.44;;;23.04;28.13
43217;BME280;60511;42.686;23.300;2023-04-30T05:19:10;94488.41;;;23.05;28.35
43217;BME280;60511;42.686;23.300;2023-04-30T05:21:11;94450.84;;;22.81;28.11
43217;BME280;60511;42.686;23.300;2023-04-30T05:23:11;94465.09;;;22.97;28.21
43217;BME280;60511;42.686;23.300;2023-04-30T05:25:11;94456.38;;;22.88;28.21
43217;BME280;60511;42.686;23.300;2023-04-30T05:27:12;94487.34;;;23.10;28.14
43217;BME280;60511;42.686;23.300;2023-04-30T05:29:12;94465.63;;;22.87;28.09
43217;BME280;60511;42.686;23.300;2023-04-30T05:31:13;94450.13;;;22.84;28.17
43217;BME280;60511;42.686;23.300;2023-04-30T05:33:13;94481.19;;;23.10;28.17
43217;BME280;60511;42.686;23.300;2023-04-30T05:35:14;94484.22;;;23.08;28.16
43217;BME280;60511;42.686;23.300;2023-04-30T05:37:14;94484.66;;;23.10;28.15
43217;BME280;60511;42.686;23.300;2023-04-30T05:39:16;94469.75;;;23.00;28.13
43217;BME280;60511;42.686;23.300;2023-04-30T05:41:17;94491.97;;;23.10;27.86
43217;BME280;60511;42.686;23.300;2023-04-30T05:43:17;94496.59;;;23.09;28.04
43217;BME280;60511;42.686;23.300;2023-04-30T05:45:17;94474.84;;;23.02;28.27
43217;BME280;60511;42.686;23.300;2023-04-30T05:47:18;94476.56;;;23.10;28.20
43217;BME280;60511;42.686;23.300;2023-04-30T05:49:18;94483.53;;;23.11;28.22
43217;BME280;60511;42.686;23.300;2023-04-30T05:51:19;94483.88;;;23.10;28.21
43217;BME280;60511;42.686;23.300;2023-04-30T05:53:19;94483.44;;;23.08;27.95
43217;BME280;60511;42.686;23.300;2023-04-30T05:55:19;94451.00;;;22.88;27.91
43217;BME280;60511;42.686;23.300;2023-04-30T05:57:21;94443.63;;;22.85;27.81
43217;BME280;60511;42.686;23.300;2023-04-30T05:59:21;94450.66;;;22.90;28.10
43217;BME280;60511;42.686;23.300;2023-04-30T06:01:22;94489.28;;;23.10;27.99
43217;BME280;60511;42.686;23.300;2023-04-30T06:03:22;94491.25;;;23.13;28.27
43217;BME280;60511;42.686;23.300;2023-04-30T06:05:23;94462.31;;;22.94;28.27
43217;BME280;60511;42.686;23.300;2023-04-30T06:07:23;94492.75;;;23.10;28.28
43217;BME280;60511;42.686;23.300;2023-04-30T06:09:24;94495.09;;;23.12;27.94
43217;BME280;60511;42.686;23.300;2023-04-30T06:11:24;94497.88;;;23.15;27.84
43217;BME280;60511;42.686;23.300;2023-04-30T06:13:25;94503.63;;;23.14;28.18
43217;BME280;60511;42.686;23.300;2023-04-30T06:15:25;94493.81;;;23.05;28.21
43217;BME280;60511;42.686;23.300;2023-04-30T06:17:26;94505.19;;;23.15;28.01
43217;BME280;60511;42.686;23.300;2023-04-30T06:19:27;94502.13;;;23.16;28.11
43217;BME280;60511;42.686;23.300;2023-04-30T06:21:28;94502.84;;;23.13;28.16
43217;BME280;60511;42.686;23.300;2023-04-30T06:23:29;94503.63;;;23.14;28.25
43217;BME280;60511;42.686;23.300;2023-04-30T06:25:31;94501.72;;;23.14;27.97
43217;BME280;60511;42.686;23.300;2023-04-30T06:27:32;94463.28;;;22.85;28.03
43217;BME280;60511;42.686;23.300;2023-04-30T06:29:32;94506.00;;;23.15;28.22
43217;BME280;60511;42.686;23.300;2023-04-30T06:31:33;94503.56;;;23.10;27.99
43217;BME280;60511;42.686;23.300;2023-04-30T06:33:33;94503.28;;;23.15;28.21
43217;BME280;60511;42.686;23.300;2023-04-30T06:35:34;94469.88;;;22.88;28.15
43217;BME280;60511;42.686;23.300;2023-04-30T06:37:34;94495.31;;;23.03;27.97
43217;BME280;60511;42.686;23.300;2023-04-30T06:39:36;94504.28;;;23.07;28.17
43217;BME280;60511;42.686;23.300;2023-04-30T06:41:37;94502.06;;;23.13;27.98
43217;BME280;60511;42.686;23.300;2023-04-30T06:43:37;94472.03;;;22.98;28.20
43217;BME280;60511;42.686;23.300;2023-04-30T06:45:38;94479.69;;;22.96;28.01
43217;BME280;60511;42.686;23.300;2023-04-30T06:47:39;94504.16;;;23.19;28.05
43217;BME280;60511;42.686;23.300;2023-04-30T06:49:41;94456.75;;;22.86;28.03
43217;BME280;60511;42.686;23.300;2023-04-30T06:51:42;94500.94;;;23.14;27.84
43217;BME280;60511;42.686;23.300;2023-04-30T06:53:42;94508.75;;;23.19;27.83
43217;BME280;60511;42.686;23.300;2023-04-30T06:55:44;94509.16;;;23.21;27.92
43217;BME280;60511;42.686;23.300;2023-04-30T06:57:46;94491.91;;;23.06;28.14
43217;BME280;60511;42.686;23.300;2023-04-30T06:59:46;94482.47;;;23.00;28.28
43217;BME280;60511;42.686;23.300;2023-04-30T07:01:47;94475.88;;;22.97;27.86
43217;BME280;60511;42.686;23.300;2023-04-30T07:03:47;94510.41;;;23.23;27.91
43217;BME280;60511;42.686;23.300;2023-04-30T07:05:48;94498.31;;;23.17;28.00
43217;BME280;60511;42.686;23.300;2023-04-30T07:07:48;94483.38;;;23.04;28.38
43217;BME280;60511;42.686;23.300;2023-04-30T07:09:49;94498.94;;;23.11;28.08
43217;BME280;60511;42.686;23.300;2023-04-30T07:11:50;94512.69;;;23.21;28.31
43217;BME280;60511;42.686;23.300;2023-04-30T07:13:51;94522.75;;;23.24;28.08
43217;BME280;60511;42.686;23.300;2023-04-30T07:15:51;94499.72;;;23.11;28.32
43217;BME280;60511;42.686;23.300;2023-04-30T07:17:52;94517.34;;;23.24;28.15
43217;BME280;60511;42.686;23.300;2023-04-30T07:19:52;94513.44;;;23.22;28.29
43217;BME280;60511;42.686;23.300;2023-04-30T07:21:53;94415.31;;;22.59;28.22
43217;BME280;60511;42.686;23.300;2023-04-30T07:23:53;94511.53;;;23.22;28.36
43217;BME280;60511;42.686;23.300;2023-04-30T07:25:53;94515.00;;;23.23;28.18
43217;BME280;60511;42.686;23.300;2023-04-30T07:27:54;94472.41;;;22.97;28.20
43217;BME280;60511;42.686;23.300;2023-04-30T07:29:54;94489.19;;;23.06;28.30
43217;BME280;60511;42.686;23.300;2023-04-30T07:31:55;94513.88;;;23.24;28.28
43217;BME280;60511;42.686;23.300;2023-04-30T07:33:58;94511.94;;;23.24;28.30
43217;BME280;60511;42.686;23.300;2023-04-30T07:35:59;94435.66;;;22.73;28.01
43217;BME280;60511;42.686;23.300;2023-04-30T07:37:59;94517.34;;;23.24;28.26
43217;BME280;60511;42.686;23.300;2023-04-30T07:40:00;94517.34;;;23.24;28.07
43217;BME280;60511;42.686;23.300;2023-04-30T07:42:00;94518.13;;;23.25;28.28
43217;BME280;60511;42.686;23.300;2023-04-30T07:44:02;94527.03;;;23.25;28.10
43217;BME280;60511;42.686;23.300;2023-04-30T07:46:02;94453.22;;;22.82;28.17
43217;BME280;60511;42.686;23.300;2023-04-30T07:48:03;94516.22;;;23.25;28.17
43217;BME280;60511;42.686;23.300;2023-04-30T07:50:04;94526.66;;;23.27;28.17
43217;BME280;60511;42.686;23.300;2023-04-30T07:52:05;94518.13;;;23.25;27.94
43217;BME280;60511;42.686;23.300;2023-04-30T07:54:07;94520.06;;;23.24;28.04
43217;BME280;60511;42.686;23.300;2023-04-30T07:56:09;94520.13;;;23.28;28.30
43217;BME280;60511;42.686;23.300;2023-04-30T07:58:10;94523.63;;;23.29;28.01
43217;BME280;60511;42.686;23.300;2023-04-30T08:00:11;94523.97;;;23.27;28.07
43217;BME280;60511;42.686;23.300;2023-04-30T08:02:12;94510.66;;;23.18;28.13
43217;BME280;60511;42.686;23.300;2023-04-30T08:04:13;94525.53;;;23.28;27.90
43217;BME280;60511;42.686;23.300;2023-04-30T08:06:13;94525.53;;;23.28;28.24
43217;BME280;60511;42.686;23.300;2023-04-30T08:08:13;94525.97;;;23.30;27.91
43217;BME280;60511;42.686;23.300;2023-04-30T08:10:15;94520.47;;;23.26;27.90
43217;BME280;60511;42.686;23.300;2023-04-30T08:12:16;94522.06;;;23.27;28.27
43217;BME280;60511;42.686;23.300;2023-04-30T08:14:17;94529.78;;;23.29;28.14
43217;BME280;60511;42.686;23.300;2023-04-30T08:16:17;94534.84;;;23.31;27.87
43217;BME280;60511;42.686;23.300;2023-04-30T08:18:18;94533.28;;;23.30;27.93
43217;BME280;60511;42.686;23.300;2023-04-30T08:20:18;94524.69;;;23.24;28.22
43217;BME280;60511;42.686;23.300;2023-04-30T08:22:19;94523.09;;;23.23;28.19
43217;BME280;60511;42.686;23.300;2023-04-30T08:24:19;94519.28;;;23.24;28.36
43217;BME280;60511;42.686;23.300;2023-04-30T08:26:20;94536.00;;;23.30;27.95
43217;BME280;60511;42.686;23.300;2023-04-30T08:28:20;94536.69;;;23.26;28.09
43217;BME280;60511;42.686;23.300;2023-04-30T08:30:21;94517.66;;;23.19;27.99
43217;BME280;60511;42.686;23.300;2023-04-30T08:32:21;94514.50;;;23.17;28.19
43217;BME280;60511;42.686;23.300;2023-04-30T08:34:22;94530.59;;;23.30;28.32
43217;BME280;60511;42.686;23.300;2023-04-30T08:36:22;94527.50;;;23.31;28.00
43217;BME280;60511;42.686;23.300;2023-04-30T08:38:23;94519.72;;;23.26;28.34
43217;BME280;60511;42.686;23.300;2023-04-30T08:40:25;94513.44;;;23.22;28.19
43217;BME280;60511;42.686;23.300;2023-04-30T08:42:35;94530.66;;;23.33;27.95
43217;BME280;60511;42.686;23.300;2023-04-30T08:44:36;94471.59;;;22.96;27.94
43217;BME280;60511;42.686;23.300;2023-04-30T08:46:39;94525.97;;;23.30;27.98
43217;BME280;60511;42.686;23.300;2023-04-30T08:48:41;94526.41;;;23.32;28.00
43217;BME280;60511;42.686;23.300;2023-04-30T08:50:41;94514.38;;;23.30;28.22
43217;BME280;60511;42.686;23.300;2023-04-30T08:52:42;94510.09;;;23.29;28.00
43217;BME280;60511;42.686;23.300;2023-04-30T08:54:43;94512.03;;;23.28;27.89
43217;BME280;60511;42.686;23.300;2023-04-30T08:56:46;94491.25;;;23.13;27.99
43217;BME280;60511;42.686;23.300;2023-04-30T08:58:47;94514.88;;;23.35;27.90
43217;BME280;60511;42.686;23.300;2023-04-30T09:00:47;94511.81;;;23.37;27.92
43217;BME280;60511;42.686;23.300;2023-04-30T09:02:48;94502.50;;;23.34;28.29
43217;BME280;60511;42.686;23.300;2023-04-30T09:04:49;94484.88;;;23.21;28.34
43217;BME280;60511;42.686;23.300;2023-04-30T09:06:51;94498.63;;;23.32;28.14
43217;BME280;60511;42.686;23.300;2023-04-30T09:08:52;94499.47;;;23.36;28.03
43217;BME280;60511;42.686;23.300;2023-04-30T09:10:53;94476.28;;;23.15;28.39
43217;BME280;60511;42.686;23.300;2023-04-30T09:13:07;94460.44;;;23.14;28.33
43217;BME280;60511;42.686;23.300;2023-04-30T09:15:08;94492.22;;;23.40;28.18
43217;BME280;60511;42.686;23.300;2023-04-30T09:17:08;94461.84;;;23.27;28.16
43217;BME280;60511;42.686;23.300;2023-04-30T09:19:21;94470.47;;;23.33;28.01
43217;BME280;60511;42.686;23.300;2023-04-30T09:21:38;94481.03;;;23.41;28.09
43217;BME280;60511;42.686;23.300;2023-04-30T09:24:01;94480.25;;;23.41;28.35
43217;BME280;60511;42.686;23.300;2023-04-30T09:26:02;94474.84;;;23.41;28.05
43217;BME280;60511;42.686;23.300;2023-04-30T09:28:12;94468.34;;;23.42;28.10
43217;BME280;60511;42.686;23.300;2023-04-30T09:30:29;94469.81;;;23.39;27.96
43217;BME280;60511;42.686;23.300;2023-04-30T09:32:30;94439.13;;;23.28;28.34
43217;BME280;60511;42.686;23.300;2023-04-30T09:34:34;94425.53;;;23.24;28.25
43217;BME280;60511;42.686;23.300;2023-04-30T09:36:50;94443.94;;;23.38;28.25
43217;BME280;60511;42.686;23.300;2023-04-30T09:38:52;94458.44;;;23.50;28.09
43217;BME280;60511;42.686;23.300;2023-04-30T09:40:52;94418.66;;;23.27;27.89
43217;BME280;60511;42.686;23.300;2023-04-30T09:42:59;94459.28;;;23.54;27.99
43217;BME280;60511;42.686;23.300;2023-04-30T09:45:00;94444.88;;;23.46;28.01
43217;BME280;60511;42.686;23.300;2023-04-30T09:47:00;94460.84;;;23.55;28.27
43217;BME280;60511;42.686;23.300;2023-04-30T09:49:03;94414.81;;;23.28;27.99
43217;BME280;60511;42.686;23.300;2023-04-30T09:51:04;94444.94;;;23.50;28.18
43217;BME280;60511;42.686;23.300;2023-04-30T09:53:05;94440.69;;;23.49;28.30
43217;BME280;60511;42.686;23.300;2023-04-30T09:55:07;94414.91;;;23.32;28.15
43217;BME280;60511;42.686;23.300;2023-04-30T09:57:10;94444.16;;;23.49;28.09
43217;BME280;60511;42.686;23.300;2023-04-30T09:59:12;94457.06;;;23.59;27.95
43217;BME280;60511;42.686;23.300;2023-04-30T10:01:13;94376.97;;;23.05;28.05
43217;BME280;60511;42.686;23.300;2023-04-30T10:03:14;94429.78;;;23.45;27.97
43217;BME280;60511;42.686;23.300;2023-04-30T10:05:16;94444.72;;;23.58;28.05
43217;BME280;60511;42.686;23.300;2023-04-30T10:07:21;94449.41;;;23.61;28.14
43217;BME280;60511;42.686;23.300;2023-04-30T10:09:29;94442.06;;;23.62;28.01
43217;BME280;60511;42.686;23.300;2023-04-30T10:11:35;94421.47;;;23.54;27.94
43217;BME280;60511;42.686;23.300;2023-04-30T10:13:42;94443.22;;;23.61;27.98
43217;BME280;60511;42.686;23.300;2023-04-30T10:15:50;94409.34;;;23.44;28.05
43217;BME280;60511;42.686;23.300;2023-04-30T10:18:12;94438.50;;;23.58;28.20
43217;BME280;60511;42.686;23.300;2023-04-30T10:20:14;94417.03;;;23.42;28.25
43217;BME280;60511;42.686;23.300;2023-04-30T10:22:17;94425.53;;;23.44;28.45
43217;BME280;60511;42.686;23.300;2023-04-30T10:24:19;94419.91;;;23.33;28.41
43217;BME280;60511;42.686;23.300;2023-04-30T10:26:20;94449.00;;;23.40;28.33
43217;BME280;60511;42.686;23.300;2023-04-30T10:28:22;94450.97;;;23.43;28.56
43217;BME280;60511;42.686;23.300;2023-04-30T10:30:23;94492.28;;;23.43;28.83
43217;BME280;60511;42.686;23.300;2023-04-30T10:34:52;94496.78;;;23.36;29.01
43217;BME280;60511;42.686;23.300;2023-04-30T10:37:10;94471.09;;;23.26;29.13
43217;BME280;60511;42.686;23.300;2023-04-30T10:39:12;94499.69;;;23.46;29.19
43217;BME280;60511;42.686;23.300;2023-04-30T10:41:14;94491.91;;;23.45;29.08
43217;BME280;60511;42.686;23.300;2023-04-30T10:43:17;94466.25;;;23.35;28.92
43217;BME280;60511;42.686;23.300;2023-04-30T10:45:33;94465.91;;;23.37;28.89
43217;BME280;60511;42.686;23.300;2023-04-30T10:47:35;94480.41;;;23.48;28.81
43217;BME280;60511;42.686;23.300;2023-04-30T10:49:39;94471.59;;;23.51;28.69
43217;BME280;60511;42.686;23.300;2023-04-30T10:51:48;94477.06;;;23.55;28.54
43217;BME280;60511;42.686;23.300;2023-04-30T10:53:49;94463.06;;;23.49;28.86
43217;BME280;60511;42.686;23.300;2023-04-30T10:55:53;94445.56;;;23.43;28.70